createdAt,value
2023-02-13T00:00:11.441Z,16.35
2023-02-13T00:05:13.511Z,13.05
2023-02-13T00:10:15.699Z,15.02
2023-02-13T00:15:17.878Z,18.77
2023-02-13T00:20:20.059Z,14.65
2023-02-13T00:25:22.116Z,17.85
2023-02-13T00:30:24.172Z,16.35
2023-02-13T00:35:26.775Z,18.90
2023-02-13T00:40:28.820Z,17.33
2023-02-13T00:45:30.830Z,15.93
2023-02-13T00:50:32.881Z,16.75
2023-02-13T00:55:35.793Z,20.48
2023-02-13T01:00:38.400Z,17.60
2023-02-13T01:05:40.948Z,18.70
2023-02-13T01:10:46.632Z,18.65
2023-02-13T01:15:49.181Z,19.88
2023-02-13T01:21:03.576Z,16.73
2023-02-13T01:26:08.190Z,14.73
2023-02-13T01:31:10.397Z,16.50
2023-02-13T01:36:14.308Z,16.58
2023-02-13T01:41:16.710Z,18.52
2023-02-13T01:46:37.547Z,16.70
2023-02-13T01:51:40.556Z,16.17
2023-02-13T01:56:48.571Z,16.20
2023-02-13T02:01:51.595Z,18.23
2023-02-13T02:07:01.485Z,16.35
2023-02-13T02:12:19.579Z,16.30
2023-02-13T02:17:26.893Z,15.30
2023-02-13T02:22:47.389Z,15.77
2023-02-13T02:28:27.310Z,16.27
2023-02-13T02:33:53.648Z,19.00
2023-02-13T02:39:26.837Z,15.85
2023-02-13T02:44:35.383Z,14.93
2023-02-13T02:49:58.693Z,17.52
2023-02-13T02:55:07.851Z,15.18
2023-02-13T03:00:37.772Z,14.73
2023-02-13T03:06:01.206Z,16.77
2023-02-13T03:11:22.292Z,17.90
2023-02-13T03:16:44.842Z,17.65
2023-02-13T03:22:17.005Z,15.80
2023-02-13T03:27:49.802Z,14.93
2023-02-13T03:33:07.099Z,16.08
2023-02-13T03:38:20.780Z,14.98
2023-02-13T03:43:23.759Z,15.30
2023-02-13T03:48:53.163Z,18.85
2023-02-13T03:54:00.672Z,15.35
2023-02-13T03:59:17.134Z,16.02
2023-02-13T04:04:26.714Z,15.80
2023-02-13T04:09:31.297Z,14.00
2023-02-13T04:14:40.032Z,17.50
2023-02-13T04:19:42.167Z,16.88
2023-02-13T04:24:44.650Z,16.13
2023-02-13T04:29:46.818Z,17.00
2023-02-13T04:34:48.951Z,17.83
2023-02-13T04:39:51.024Z,17.50
2023-02-13T04:44:53.119Z,16.23
2023-02-13T04:49:55.202Z,16.48
2023-02-13T04:54:57.369Z,16.75
2023-02-13T04:59:59.768Z,14.43
2023-02-13T05:05:01.866Z,18.60
2023-02-13T05:10:05.176Z,18.25
2023-02-13T05:15:07.645Z,17.63
2023-02-13T05:20:10.220Z,15.20
2023-02-13T05:25:12.499Z,19.17
2023-02-13T05:30:15.061Z,16.92
2023-02-13T05:35:17.812Z,16.95
2023-02-13T05:40:21.812Z,22.17
2023-02-13T05:45:24.860Z,21.30
2023-02-13T05:50:27.225Z,27.92
2023-02-13T05:55:30.782Z,23.85
2023-02-13T06:00:32.916Z,25.48
2023-02-13T06:05:34.983Z,22.77
2023-02-13T06:10:37.330Z,25.63
2023-02-13T06:15:40.476Z,22.88
2023-02-13T06:20:42.631Z,22.60
2023-02-13T06:25:44.780Z,23.50
2023-02-13T06:30:47.997Z,22.90
2023-02-13T06:35:50.144Z,19.08
2023-02-13T06:40:52.392Z,18.38
2023-02-13T06:45:54.520Z,19.17
2023-02-13T06:50:56.992Z,23.15
2023-02-13T06:55:59.294Z,19.90
2023-02-13T07:01:01.467Z,19.85
2023-02-13T07:06:03.796Z,21.38
2023-02-13T07:11:06.067Z,17.17
2023-02-13T07:16:08.277Z,20.73
2023-02-13T07:21:10.464Z,19.25
2023-02-13T07:26:12.597Z,20.33
2023-02-13T07:31:14.893Z,21.27
2023-02-13T07:36:17.181Z,18.45
2023-02-13T07:41:20.037Z,22.58
2023-02-13T07:46:22.358Z,20.67
2023-02-13T07:51:25.435Z,20.00
2023-02-13T07:56:27.581Z,19.20
2023-02-13T08:01:29.798Z,21.45
2023-02-13T08:06:32.021Z,22.17
2023-02-13T08:11:52.534Z,25.98
2023-02-13T08:16:55.358Z,24.10
2023-02-13T08:21:57.629Z,27.45
2023-02-13T08:26:59.738Z,30.27
2023-02-13T08:32:01.899Z,36.63
2023-02-13T08:37:04.335Z,29.27
2023-02-13T08:42:06.550Z,29.30
2023-02-13T08:47:09.637Z,30.83
2023-02-13T08:52:11.925Z,26.02
2023-02-13T08:57:14.042Z,22.10
2023-02-13T09:02:16.263Z,21.75
2023-02-13T09:07:18.435Z,21.17
2023-02-13T09:12:20.552Z,18.95
2023-02-13T09:17:22.660Z,20.35
2023-02-13T09:22:24.824Z,23.10
2023-02-13T09:27:26.921Z,20.42
2023-02-13T09:32:29.080Z,22.60
2023-02-13T09:37:31.107Z,20.08
2023-02-13T09:42:36.991Z,20.80
2023-02-13T09:47:45.544Z,21.85
2023-02-13T09:52:50.600Z,21.33
2023-02-13T09:58:08.687Z,22.87
2023-02-13T10:03:22.984Z,24.95
2023-02-13T10:08:49.851Z,21.33
2023-02-13T10:14:07.018Z,19.42
2023-02-13T10:19:09.101Z,24.83
2023-02-13T10:24:18.540Z,20.33
2023-02-13T10:29:40.840Z,18.80
2023-02-13T10:34:45.856Z,21.30
2023-02-13T10:39:53.442Z,21.10
2023-02-13T10:45:13.410Z,21.38
2023-02-13T10:50:24.815Z,15.85
2023-02-13T10:55:48.129Z,18.05
2023-02-13T11:00:58.762Z,15.38
2023-02-13T11:06:09.472Z,16.63
2023-02-13T11:11:39.071Z,18.67
2023-02-13T11:16:48.515Z,15.57
2023-02-13T11:21:55.605Z,16.15
2023-02-13T11:27:08.724Z,13.15
2023-02-13T11:32:23.599Z,14.05
2023-02-13T11:37:30.315Z,13.00
2023-02-13T11:42:34.593Z,12.50
2023-02-13T11:47:41.940Z,13.10
2023-02-13T11:52:50.743Z,13.25
2023-02-13T11:58:20.930Z,12.35
2023-02-13T12:03:31.202Z,10.73
2023-02-13T12:08:36.310Z,12.90
2023-02-13T12:13:39.257Z,12.00
2023-02-13T12:18:46.580Z,9.88
2023-02-13T12:24:04.342Z,10.30
2023-02-13T12:29:18.116Z,9.82
2023-02-13T12:34:23.868Z,9.57
2023-02-13T12:39:38.067Z,10.50
2023-02-13T12:44:57.317Z,9.73
2023-02-13T12:50:29.795Z,9.65
2023-02-13T12:56:02.695Z,11.20
2023-02-13T13:01:26.791Z,10.50
2023-02-13T13:06:50.829Z,9.82
2023-02-13T13:12:08.767Z,8.73
2023-02-13T13:17:31.196Z,8.15
2023-02-13T13:22:53.713Z,9.55
2023-02-13T13:28:04.608Z,7.72
2023-02-13T13:33:20.455Z,8.65
2023-02-13T13:38:43.346Z,10.93
2023-02-13T13:43:57.665Z,8.55
2023-02-13T13:49:09.910Z,10.52
2023-02-13T13:54:11.962Z,10.95
2023-02-13T13:59:18.553Z,5.93
2023-02-13T14:04:33.136Z,8.07
2023-02-13T14:09:43.769Z,8.25
2023-02-13T14:14:46.348Z,8.48
2023-02-13T14:19:53.007Z,8.30
2023-02-13T14:24:57.441Z,9.77
2023-02-13T14:30:00.727Z,9.23
2023-02-13T14:35:18.343Z,8.77
2023-02-13T14:40:20.704Z,10.38
2023-02-13T14:45:32.482Z,12.05
2023-02-13T14:50:52.565Z,10.98
2023-02-13T14:56:02.368Z,9.68
2023-02-13T15:01:29.307Z,10.70
2023-02-13T15:06:36.582Z,10.13
2023-02-13T15:11:43.538Z,8.68
2023-02-13T15:16:52.749Z,11.77
2023-02-13T15:22:03.217Z,10.45
2023-02-13T15:27:07.551Z,8.13
2023-02-13T15:32:21.457Z,7.93
2023-02-13T15:37:27.222Z,8.07
2023-02-13T15:42:32.096Z,5.70
2023-02-13T15:47:34.603Z,5.07
2023-02-13T15:52:39.033Z,6.10
2023-02-13T15:57:41.419Z,7.20
2023-02-13T16:02:47.596Z,4.72
2023-02-13T16:07:58.679Z,4.82
2023-02-13T16:13:07.340Z,6.00
2023-02-13T16:18:20.065Z,7.95
2023-02-13T16:23:22.408Z,8.52
2023-02-13T16:28:27.708Z,5.10
2023-02-13T16:33:35.308Z,5.03
2023-02-13T16:38:38.411Z,4.80
2023-02-13T16:43:54.167Z,8.63
2023-02-13T16:49:12.104Z,7.50
2023-02-13T16:54:54.370Z,7.45
2023-02-13T17:00:04.701Z,7.85
2023-02-13T17:05:09.608Z,9.50
2023-02-13T17:10:19.504Z,9.57
2023-02-13T17:15:24.272Z,10.88
2023-02-13T17:20:29.437Z,7.57
2023-02-13T17:25:36.830Z,4.75
2023-02-13T17:30:39.192Z,6.60
2023-02-13T17:35:41.411Z,6.80
2023-02-13T17:40:44.850Z,7.03
2023-02-13T17:45:47.878Z,5.72
2023-02-13T17:50:51.524Z,7.97
2023-02-13T17:55:53.871Z,11.35
2023-02-13T18:00:56.231Z,12.20
2023-02-13T18:05:58.419Z,10.10
2023-02-13T18:11:00.888Z,6.95
2023-02-13T18:16:08.705Z,7.03
2023-02-13T18:21:12.592Z,9.25
2023-02-13T18:26:15.544Z,9.48
2023-02-13T18:31:20.742Z,9.80
2023-02-13T18:36:22.825Z,8.07
2023-02-13T18:41:24.824Z,10.27
2023-02-13T18:46:27.070Z,10.55
2023-02-13T18:51:29.691Z,7.65
2023-02-13T18:56:31.746Z,6.82
2023-02-13T19:01:35.397Z,10.25
2023-02-13T19:06:40.413Z,8.30
2023-02-13T19:11:44.343Z,8.77
2023-02-13T19:16:46.419Z,8.20
2023-02-13T19:21:48.575Z,6.05
2023-02-13T19:26:50.605Z,9.13
2023-02-13T19:31:52.735Z,7.63
2023-02-13T19:36:54.764Z,7.72
2023-02-13T19:41:56.843Z,9.95
2023-02-13T19:46:58.837Z,8.52
2023-02-13T19:52:00.895Z,9.20
2023-02-13T19:57:05.922Z,8.15
2023-02-13T20:02:13.553Z,9.10
2023-02-13T20:07:15.634Z,10.27
2023-02-13T20:12:17.906Z,8.43
2023-02-13T20:17:19.929Z,10.80
2023-02-13T20:22:22.122Z,8.88
2023-02-13T20:27:24.440Z,12.02
2023-02-13T20:32:27.151Z,11.85
2023-02-13T20:37:29.234Z,8.20
2023-02-13T20:42:33.889Z,8.20
2023-02-13T20:47:35.940Z,7.85
2023-02-13T20:52:38.473Z,7.90
2023-02-13T20:57:40.552Z,11.77
2023-02-13T21:02:42.685Z,8.00
2023-02-13T21:07:44.692Z,10.23
2023-02-13T21:12:46.803Z,8.05
2023-02-13T21:17:48.872Z,10.43
2023-02-13T21:22:51.075Z,8.00
2023-02-13T21:27:53.107Z,7.05
2023-02-13T21:32:55.159Z,9.45
2023-02-13T21:37:57.180Z,10.23
2023-02-13T21:42:59.214Z,10.50
2023-02-13T21:48:01.250Z,8.65
2023-02-13T21:53:03.321Z,6.00
2023-02-13T21:58:05.343Z,7.32
2023-02-13T22:03:07.457Z,6.80
2023-02-13T22:08:12.500Z,6.50
2023-02-13T22:13:14.519Z,9.07
2023-02-13T22:18:16.603Z,8.52
2023-02-13T22:23:18.706Z,8.00
2023-02-13T22:28:20.757Z,12.07
2023-02-13T22:33:23.080Z,10.50
2023-02-13T22:38:25.221Z,9.93
2023-02-13T22:43:27.254Z,14.52
2023-02-13T22:48:29.383Z,13.70
2023-02-13T22:53:32.185Z,11.85
2023-02-13T22:58:34.516Z,13.35
2023-02-13T23:03:36.584Z,15.40
2023-02-13T23:08:39.547Z,12.23
2023-02-13T23:13:44.213Z,12.77
2023-02-13T23:18:54.792Z,9.02
2023-02-13T23:23:56.874Z,11.23
2023-02-13T23:28:59.088Z,10.52
2023-02-13T23:34:01.307Z,11.20
2023-02-13T23:39:03.452Z,9.75
2023-02-13T23:44:05.578Z,9.23
2023-02-13T23:49:07.760Z,11.98
2023-02-13T23:54:17.900Z,8.35
2023-02-13T23:59:21.521Z,10.07
